X  CloseMetar Aviation Weather Data     KORD Chicago O'hare International

Temperature

45°F Temperature

36°F Dewpoint

71% Humidity



Wind

 6 MPH

10 KM/H

 3 M/S

 5 KTS



310°
North West
Current Conditions

Mostly Scattered Clouds Mostly Scattered Clouds
Pressure 1011.22 (hPa) - 29.86 (in)
Visibility 10 (mi) - 16.1 (km)
Airport
Airport-code KORD

Location Chicago O'hare International 10 (mi)

Metar:
KORD 131051Z 31005KT 10SM SCT060 BKN080 BKN120 07/02 A2986 RMK AO2 SLP114 T00670022 $

Time: 05-13-2019 5:51